Pollock, ID

8:26 AM PDT on July 24, 2014 (GMT -0700)
Baker City Municipal (KBKE) Elev 3373 ft | 44.84 °N, 117.81 °W | Change Station

Current weather conditions updated 33 minutes ago

Partly Cloudy
Partly Cloudy
53 °F
Feels Like 53 °F
N
7
Wind Variable Wind from South

Today is forecast to be Much Cooler than yesterday.

Today
High -- | Low -- °F
--% Chance of Precip.
Yesterday
High -- | Low -- °F
Precip. -- in
5:21 AM 8:22 PM
Waning Crescent, 5% visible
Pressure 30.21 in
Visibility 10.0 miles
Clouds Clear
Dew Point 38 °F
Humidity 57%
Rainfall 0.00 in
Snow Depth 0 in , 0 in
UV 2 out of 12
Pollen 6.30 out of 12
PM2.5 Good
Flu Activity Not available.
METAR KBKE 241453Z AUTO 18006KT 10SM CLR 12/03 A3023 RMK AO2 SLP228 T01170033 51019 TSNO

More Conditions Fewer Conditions

Pressure 30.21 in
Visibility 10.0 miles
Clouds Clear
Dew Point 38 °F
Humidity 57%
Rainfall 0.00 in
Snow Depth 0 in , 0 in
UV 2 out of 12
Pollen 6.30 out of 12
PM2.5 Good
Flu Activity Not available.
METAR KBKE 241453Z AUTO 18006KT 10SM CLR 12/03 A3023 RMK AO2 SLP228 T01170033 51019 TSNO

More Conditions Fewer Conditions

10-Day Weather Forecast

Almanac

Astronomy

Jul. 24, 2014 Rise Set
Actual Time 5:21 AM PDT 8:22 PM PDT
Civil Twilight 4:46 AM PDT 8:56 PM PDT
Nautical Twilight 4:01 AM PDT 9:41 PM PDT
Astronomical Twilight 3:07 AM PDT 10:35 PM PDT
Moon 3:33 AM PDT 6:38 PM PDT
Length of Visible Light 16h 10m
Length of Day
15h 00m
Tomorrow will be 2m 9s shorter.
Waning Crescent, 5% of the Moon is Illuminated
Today
Waning Crescent
Jul 26
New
Aug 3
First Quarter
Aug 10
Full
Aug 17
Last Quarter

Today's Extremes

State Highs State Lows

Community

WunderPhotos

Upload Photos

1,737,042 photos uploaded!

Nearby

Air Quality

  Air Quality AQ Index Pollutant
Yesterday Good
PM2.5
Current Good
PM2.5
Thursday Good
PM2.5
Friday Good
PM2.5

Snow Depth

Station Depth Elevation
Brundage Reservoir 0 in 6300 ft
Secesh Summit 0 in 6520 ft
Bear Basin 0 in 5350 ft
Squaw Flat 1 in 6240 ft
Long Valley 0 in 4890 ft

Earthquake Activity

City Distance Mag. Time & Date
No recent earthquake activity has been reported nearby.
Minimum magnitude displayed is 2.5.

Coastal Water Temperatures

Place Temperature
No Stations Reporting

Nearby Weather Stations

Station Location Temp. Windchill Dew Point Humidity Wind Precip. Elev Updated Type
ITD Smokey Boulder ID , New Meadows, ID 57 °F - 49 °F 75% WSW  at  2 mph 0.00 in / hr 3829 ft 8:45 AM MDT MADIS
RAWS SNAKE RIVER ID, Oxbow, OR 50 °F 45 °F 38 °F 63% WSW  at  13 mph 0.00 in / hr 4375 ft 7:46 AM PDT MADIS
RAWS SKI HILL ID, New Meadows, ID 50 °F - 41 °F 72% West  at  3 mph 0.00 in / hr 5296 ft 8:58 AM MDT MADIS

Show More Stations Show Fewer Stations